Time;durP1;ratioP1;P1;durP2;ratioP2;P2;SDS_P1;SDS_P2;PMS_P1;PMS_P2;Temp;Humidity;BMP_temperature;BMP_pressure;BME280_temperature;BME280_humidity;BME280_pressure;Samples;Min_cycle;Max_cycle;Signal;HPM_P1;HPM_P2
2022/04/18 00:02:19;;;;;;;3.47;1.80;;;12.20;71.20;;;;;;5050281;28;20057;-57
2022/04/18 00:04:45;;;;;;;4.97;2.03;;;12.00;72.00;;;;;;5050049;28;20029;-57
2022/04/18 00:07:11;;;;;;;8.32;2.25;;;11.90;72.00;;;;;;5050645;28;20029;-57
2022/04/18 00:09:37;;;;;;;3.28;1.77;;;11.90;72.10;;;;;;5050468;28;20046;-57
2022/04/18 00:12:03;;;;;;;3.40;2.30;;;11.90;71.50;;;;;;5050436;28;20390;-57
2022/04/18 00:14:29;;;;;;;4.20;2.10;;;11.90;72.00;;;;;;5050580;28;20359;-57
2022/04/18 00:16:55;;;;;;;6.43;2.40;;;11.80;73.10;;;;;;5049751;28;20099;-57
2022/04/18 00:19:21;;;;;;;2.83;1.90;;;11.70;74.00;;;;;;5049453;28;20025;-57
2022/04/18 00:21:47;;;;;;;4.97;2.03;;;11.60;73.90;;;;;;5049761;28;20108;-58
2022/04/18 00:24:14;;;;;;;5.20;1.98;;;11.50;74.70;;;;;;5049921;28;20029;-58
2022/04/18 00:26:42;;;;;;;5.32;2.30;;;11.40;75.10;;;;;;5049483;28;20033;-58
2022/04/18 00:29:07;;;;;;;3.92;2.10;;;11.30;75.90;;;;;;5049933;28;20021;-58
2022/04/18 00:31:33;;;;;;;6.32;2.30;;;11.10;76.40;;;;;;5050010;28;20031;-58
2022/04/18 00:33:58;;;;;;;5.43;2.20;;;11.00;75.90;;;;;;5050605;28;20118;-58
2022/04/18 00:36:24;;;;;;;6.32;1.85;;;11.00;76.00;;;;;;5049962;28;20025;-58
2022/04/18 00:38:50;;;;;;;1.63;1.40;;;11.10;73.50;;;;;;5050151;28;20040;-57
2022/04/18 00:41:15;;;;;;;2.10;1.48;;;11.40;71.70;;;;;;5050343;28;20436;-57
2022/04/18 00:43:47;;;;;;;4.40;1.60;;;11.60;69.90;;;;;;5050525;28;20025;-57
2022/04/18 00:46:14;;;;;;;2.75;1.60;;;11.70;69.30;;;;;;5050144;28;20028;-57
2022/04/18 00:48:41;;;;;;;3.72;1.70;;;11.80;68.70;;;;;;5050022;28;20072;-57
2022/04/18 00:51:10;;;;;;;2.92;1.52;;;11.90;69.00;;;;;;5049990;28;20046;-57
2022/04/18 00:53:37;;;;;;;4.70;1.90;;;11.90;67.80;;;;;;5048398;28;20085;-57
2022/04/18 00:56:04;;;;;;;2.90;1.30;;;11.90;67.80;;;;;;5049472;28;20044;-57
2022/04/18 00:58:30;;;;;;;2.88;1.70;;;11.90;68.20;;;;;;5048878;28;20029;-57
2022/04/18 01:00:56;;;;;;;4.47;1.80;;;11.80;68.60;;;;;;5050081;28;20367;-57
2022/04/18 01:03:22;;;;;;;3.28;1.85;;;11.80;69.60;;;;;;5053693;28;20047;-57
2022/04/18 01:05:48;;;;;;;3.15;1.88;;;11.70;71.60;;;;;;5053087;28;20032;-57
2022/04/18 01:08:15;;;;;;;5.97;2.05;;;11.40;73.80;;;;;;5052934;28;20070;-58
2022/04/18 01:10:42;;;;;;;3.05;1.80;;;11.20;75.60;;;;;;5052605;28;20029;-58
2022/04/18 01:13:08;;;;;;;7.40;2.00;;;10.90;77.40;;;;;;5052008;28;20166;-57
2022/04/18 01:15:33;;;;;;;5.15;2.00;;;10.70;79.10;;;;;;5053148;28;20108;-57
2022/04/18 01:17:59;;;;;;;2.72;1.80;;;10.40;80.50;;;;;;5051619;28;20021;-57
2022/04/18 01:20:34;;;;;;;4.30;2.00;;;10.30;80.30;;;;;;5053237;28;20433;-57
2022/04/18 01:23:00;;;;;;;3.53;1.48;;;10.30;79.70;;;;;;5053343;28;20071;-57
2022/04/18 01:30:55;;;;;;;3.08;2.22;;;10.40;77.40;;;;;;5053090;28;20044;-56
2022/04/18 01:33:21;;;;;;;2.65;1.60;;;10.40;77.90;;;;;;5052735;28;20037;-57
2022/04/18 01:35:47;;;;;;;3.33;2.00;;;10.40;75.80;;;;;;5051796;28;20028;-57
2022/04/18 01:38:13;;;;;;;6.40;1.80;;;10.50;77.70;;;;;;5052733;28;20430;-57
2022/04/18 01:40:39;;;;;;;3.28;2.10;;;10.20;80.80;;;;;;5051338;28;20021;-57
2022/04/18 01:43:08;;;;;;;3.33;2.00;;;10.10;81.70;;;;;;5052778;28;20021;-57
2022/04/18 01:45:34;;;;;;;5.28;2.22;;;10.00;81.60;;;;;;5052922;28;20237;-57
2022/04/18 01:48:01;;;;;;;2.88;1.92;;;10.00;81.30;;;;;;5052877;28;20106;-57
2022/04/18 01:50:27;;;;;;;2.58;2.20;;;9.90;81.90;;;;;;5051290;28;20016;-57
2022/04/18 01:52:52;;;;;;;4.47;1.85;;;9.70;82.60;;;;;;5052583;28;20032;-57
2022/04/18 01:55:18;;;;;;;4.47;2.00;;;9.60;83.70;;;;;;5051409;28;20108;-57
2022/04/18 01:57:43;;;;;;;2.13;1.65;;;9.40;84.20;;;;;;5052275;28;20379;-57
2022/04/18 02:00:10;;;;;;;4.28;2.00;;;9.30;83.70;;;;;;5052185;28;20017;-57
2022/04/18 02:02:35;;;;;;;3.30;1.92;;;9.40;83.70;;;;;;5052375;28;20029;-57
2022/04/18 02:05:01;;;;;;;4.88;2.05;;;9.40;83.00;;;;;;5050461;28;20108;-57
2022/04/18 02:07:28;;;;;;;2.78;1.90;;;9.30;83.70;;;;;;5050771;28;20028;-57
2022/04/18 02:09:55;;;;;;;4.85;1.95;;;9.30;84.10;;;;;;5051493;28;20100;-57
2022/04/18 02:12:20;;;;;;;5.47;2.22;;;9.20;83.90;;;;;;5051755;28;20105;-57
2022/04/18 02:14:47;;;;;;;11.10;2.83;;;9.30;83.80;;;;;;5051557;28;20453;-57
2022/04/18 02:17:13;;;;;;;4.65;2.08;;;9.40;83.50;;;;;;5052271;28;20108;-57
2022/04/18 02:19:38;;;;;;;4.07;1.95;;;9.30;84.10;;;;;;5052221;28;20021;-57
2022/04/18 02:22:05;;;;;;;10.82;2.22;;;9.20;85.10;;;;;;5050925;28;20025;-56
2022/04/18 02:24:31;;;;;;;7.32;2.15;;;9.10;85.50;;;;;;5050950;28;20021;-56
2022/04/18 02:26:57;;;;;;;3.45;1.85;;;9.10;85.90;;;;;;5052025;28;20432;-56
2022/04/18 02:29:23;;;;;;;3.10;1.80;;;9.10;86.30;;;;;;5051993;28;20021;-56
2022/04/18 02:34:32;;;;;;;4.22;1.85;;;9.10;88.30;;;;;;5051593;28;20098;-56
2022/04/18 02:36:58;;;;;;;4.13;1.90;;;9.00;89.60;;;;;;5051992;28;20433;-56
2022/04/18 02:39:23;;;;;;;4.20;2.22;;;9.10;90.10;;;;;;5051978;28;20028;-56
2022/04/18 02:41:49;;;;;;;2.78;2.40;;;9.20;89.40;;;;;;5051764;28;20025;-56
2022/04/18 02:44:15;;;;;;;3.85;2.10;;;9.20;89.90;;;;;;5052143;28;20013;-56
2022/04/18 02:46:40;;;;;;;7.35;2.17;;;9.00;90.80;;;;;;5051501;28;20032;-56
2022/04/18 02:49:06;;;;;;;5.10;2.28;;;8.70;91.00;;;;;;5051629;28;20036;-56
2022/04/18 02:51:31;;;;;;;3.20;2.25;;;8.50;91.60;;;;;;5051123;28;20025;-56
2022/04/18 02:53:59;;;;;;;6.75;2.03;;;8.30;92.40;;;;;;5051757;28;20025;-57
2022/04/18 02:56:24;;;;;;;2.97;2.40;;;8.20;92.80;;;;;;5051549;28;20128;-56
2022/04/18 02:58:50;;;;;;;3.13;2.25;;;8.20;93.20;;;;;;5051556;28;20639;-56
2022/04/18 03:01:16;;;;;;;8.55;2.00;;;8.30;92.70;;;;;;5050097;28;20056;-56
2022/04/18 03:03:42;;;;;;;2.10;1.80;;;8.30;93.10;;;;;;5051959;28;20017;-56
2022/04/18 03:06:08;;;;;;;3.35;2.00;;;8.30;93.70;;;;;;5051843;28;20482;-56
2022/04/18 03:08:33;;;;;;;3.92;2.00;;;8.30;93.30;;;;;;5051641;28;20102;-56
2022/04/18 03:11:05;;;;;;;3.70;2.38;;;8.40;93.00;;;;;;5051467;28;20059;-56
2022/04/18 03:13:36;;;;;;;2.57;2.00;;;8.40;92.00;;;;;;5051655;28;20439;-56
2022/04/18 03:16:03;;;;;;;3.30;2.08;;;8.70;91.20;;;;;;5051446;28;20202;-56
2022/04/18 03:18:29;;;;;;;3.03;2.20;;;8.50;93.30;;;;;;5051475;28;20525;-56
2022/04/18 03:20:55;;;;;;;2.65;2.13;;;8.50;93.10;;;;;;5051708;28;20109;-56
2022/04/18 03:23:20;;;;;;;5.15;2.03;;;8.40;92.60;;;;;;5050924;28;20017;-57
2022/04/18 03:25:46;;;;;;;4.65;2.28;;;8.40;92.30;;;;;;5050663;28;20037;-56
2022/04/18 03:28:12;;;;;;;4.07;2.17;;;8.40;92.20;;;;;;5050970;28;20524;-56
2022/04/18 03:30:38;;;;;;;3.17;1.90;;;8.40;92.10;;;;;;5050559;28;20033;-56
2022/04/18 03:33:04;;;;;;;3.60;1.92;;;8.60;91.20;;;;;;5050876;28;20104;-56
2022/04/18 03:35:30;;;;;;;3.75;2.20;;;8.60;91.60;;;;;;5050189;28;20122;-56
2022/04/18 03:40:41;;;;;;;3.45;2.00;;;8.50;92.60;;;;;;5050935;28;20543;-56
2022/04/18 03:43:06;;;;;;;4.93;2.05;;;8.40;92.00;;;;;;5050786;28;20025;-56
2022/04/18 03:45:32;;;;;;;3.65;2.08;;;8.60;91.30;;;;;;5050219;28;20070;-56
2022/04/18 03:47:58;;;;;;;3.53;2.05;;;8.70;92.50;;;;;;5050234;28;20021;-56
2022/04/18 03:50:23;;;;;;;3.17;2.20;;;8.60;93.20;;;;;;5050463;28;20017;-56
2022/04/18 03:52:49;;;;;;;3.28;2.35;;;8.40;94.50;;;;;;5049387;28;20021;-56
2022/04/18 03:55:14;;;;;;;4.95;2.15;;;8.10;95.10;;;;;;5051107;28;20052;-56
2022/04/18 03:57:40;;;;;;;5.60;2.40;;;7.90;96.00;;;;;;5048988;28;20033;-56
2022/04/18 04:00:07;;;;;;;4.97;2.05;;;7.70;97.40;;;;;;5050633;28;20040;-56
2022/04/18 04:02:33;;;;;;;2.92;2.33;;;7.60;98.30;;;;;;5051074;28;20025;-56
2022/04/18 04:04:59;;;;;;;4.13;2.20;;;7.50;99.00;;;;;;5051295;28;20047;-56
2022/04/18 04:07:24;;;;;;;3.85;2.45;;;7.30;99.90;;;;;;5051263;28;20083;-56
2022/04/18 04:09:50;;;;;;;2.97;2.38;;;7.40;99.90;;;;;;5051102;28;20494;-56
2022/04/18 04:12:23;;;;;;;3.47;2.28;;;7.50;99.90;;;;;;5050917;28;20521;-56
2022/04/18 04:14:53;;;;;;;4.28;2.50;;;7.50;99.90;;;;;;5050418;28;20067;-56
2022/04/18 04:17:21;;;;;;;8.02;2.20;;;7.40;99.90;;;;;;5048780;28;20064;-56
2022/04/18 04:19:47;;;;;;;3.13;2.45;;;7.30;99.90;;;;;;5049066;28;20501;-56
2022/04/18 04:22:12;;;;;;;7.97;2.63;;;7.40;99.90;;;;;;5050857;28;20043;-56
2022/04/18 04:24:38;;;;;;;3.20;2.45;;;7.30;99.90;;;;;;5050191;28;20367;-56
2022/04/18 04:27:04;;;;;;;6.30;2.65;;;7.20;99.90;;;;;;5050365;28;20017;-56
2022/04/18 04:29:30;;;;;;;3.83;2.40;;;7.10;99.90;;;;;;5050061;28;20029;-56
2022/04/18 04:31:55;;;;;;;7.30;3.08;;;7.10;99.90;;;;;;5050179;28;20124;-56
2022/04/18 04:34:22;;;;;;;14.95;7.13;;;7.20;99.90;;;;;;5050373;28;20493;-56
2022/04/18 04:36:47;;;;;;;10.88;6.80;;;7.30;99.90;;;;;;5050100;28;20050;-56
2022/04/18 04:39:13;;;;;;;6.32;4.50;;;7.40;99.90;;;;;;5052790;28;20348;-56
2022/04/18 04:41:39;;;;;;;8.60;4.90;;;7.50;99.90;;;;;;5054312;28;20021;-56
2022/04/18 04:44:06;;;;;;;6.07;3.80;;;7.70;99.90;;;;;;5053089;28;20028;-56
2022/04/18 04:46:32;;;;;;;8.63;4.28;;;7.90;99.90;;;;;;5053980;28;20020;-56
2022/04/18 04:48:58;;;;;;;7.80;4.10;;;8.00;99.90;;;;;;5053787;28;20158;-56
2022/04/18 04:51:24;;;;;;;4.55;3.20;;;8.10;99.90;;;;;;5053673;28;20104;-56
2022/04/18 04:53:50;;;;;;;5.85;3.65;;;8.00;99.90;;;;;;5053650;28;20021;-56
2022/04/18 04:56:17;;;;;;;7.75;3.88;;;8.10;99.90;;;;;;5053849;28;20067;-56
2022/04/18 04:58:43;;;;;;;7.75;3.70;;;8.10;99.90;;;;;;5053833;28;20036;-56
2022/04/18 05:01:08;;;;;;;6.43;3.40;;;8.20;99.90;;;;;;5053979;28;20037;-56
2022/04/18 05:03:34;;;;;;;6.15;4.28;;;8.30;99.90;;;;;;5053802;28;20025;-57
2022/04/18 05:06:00;;;;;;;4.53;3.08;;;8.50;99.90;;;;;;5053458;28;20538;-57
2022/04/18 05:08:25;;;;;;;6.40;3.13;;;8.40;99.70;;;;;;5053353;28;20056;-57
2022/04/18 05:10:54;;;;;;;7.38;3.00;;;8.30;99.90;;;;;;5053296;28;20041;-57
2022/04/18 05:13:22;;;;;;;6.28;3.53;;;8.40;98.10;;;;;;5053757;28;20025;-57
2022/04/18 05:15:48;;;;;;;4.22;3.08;;;8.30;99.90;;;;;;5053481;28;20079;-57
2022/04/18 05:18:14;;;;;;;5.43;3.15;;;8.20;99.90;;;;;;5053208;28;20385;-57
2022/04/18 05:20:39;;;;;;;5.78;3.10;;;8.30;99.90;;;;;;5053563;28;20087;-57
2022/04/18 05:23:05;;;;;;;8.80;3.67;;;8.30;99.60;;;;;;5053674;28;20025;-57
2022/04/18 05:25:31;;;;;;;5.78;3.47;;;8.30;99.90;;;;;;5053249;28;20079;-57
2022/04/18 05:27:57;;;;;;;7.35;3.60;;;8.40;98.10;;;;;;5053171;28;20108;-57
2022/04/18 05:30:24;;;;;;;7.47;3.47;;;8.60;96.20;;;;;;5053314;28;20032;-57
2022/04/18 05:32:49;;;;;;;5.28;3.45;;;8.70;96.40;;;;;;5052782;28;20041;-57
2022/04/18 05:35:15;;;;;;;9.18;4.32;;;8.70;97.40;;;;;;5051771;28;20082;-57
2022/04/18 05:37:41;;;;;;;6.72;4.00;;;8.80;98.40;;;;;;5052901;28;20029;-57
2022/04/18 05:40:08;;;;;;;5.05;2.72;;;8.80;99.60;;;;;;5052804;28;20021;-57
2022/04/18 05:42:33;;;;;;;4.45;2.85;;;8.80;98.00;;;;;;5053183;28;20697;-57
2022/04/18 05:44:59;;;;;;;6.95;3.30;;;8.70;97.80;;;;;;5053178;28;20013;-57
2022/04/18 05:47:24;;;;;;;7.85;3.72;;;8.60;98.50;;;;;;5051563;28;20505;-57
2022/04/18 05:49:50;;;;;;;6.88;3.60;;;8.50;98.70;;;;;;5052674;28;20025;-56
2022/04/18 05:52:16;;;;;;;4.53;2.83;;;8.50;98.90;;;;;;5053344;28;20043;-57
2022/04/18 05:54:42;;;;;;;6.60;3.30;;;8.50;99.60;;;;;;5053154;28;20021;-56
2022/04/18 05:57:08;;;;;;;5.90;3.33;;;8.40;99.80;;;;;;5052711;28;20071;-56
2022/04/18 05:59:33;;;;;;;6.15;3.60;;;8.50;99.90;;;;;;5052933;28;20051;-56
2022/04/18 06:01:59;;;;;;;7.43;3.20;;;8.60;99.90;;;;;;5052401;28;20017;-56
2022/04/18 06:04:25;;;;;;;6.50;3.20;;;8.60;99.90;;;;;;5052306;28;20021;-56
2022/04/18 06:06:50;;;;;;;9.60;3.42;;;8.60;99.90;;;;;;5052599;28;20104;-57
2022/04/18 06:09:16;;;;;;;4.60;3.30;;;8.60;99.90;;;;;;5051627;28;20482;-57
2022/04/18 06:11:41;;;;;;;5.85;3.05;;;8.50;99.90;;;;;;5052723;28;20032;-57
2022/04/18 06:14:08;;;;;;;5.90;3.10;;;8.50;99.90;;;;;;5053130;28;20493;-57
2022/04/18 06:16:34;;;;;;;6.18;3.33;;;8.50;99.90;;;;;;5052696;28;20021;-56
2022/04/18 06:18:59;;;;;;;5.53;3.13;;;8.50;99.90;;;;;;5052119;28;20094;-56
2022/04/18 06:21:25;;;;;;;5.63;3.53;;;8.60;99.90;;;;;;5052080;28;20352;-57
2022/04/18 06:23:51;;;;;;;7.40;3.05;;;8.70;99.90;;;;;;5051970;28;20025;-57
2022/04/18 06:26:17;;;;;;;4.07;3.30;;;8.70;99.90;;;;;;5050399;28;20051;-57
2022/04/18 06:28:42;;;;;;;9.13;3.58;;;8.70;99.90;;;;;;5051757;28;20024;-57
2022/04/18 06:31:08;;;;;;;8.13;4.15;;;8.70;99.90;;;;;;5051178;28;20025;-57
2022/04/18 06:33:34;;;;;;;7.38;3.55;;;8.70;99.90;;;;;;5051365;28;20053;-57
2022/04/18 06:36:01;;;;;;;7.63;3.45;;;8.70;99.90;;;;;;5051895;28;20032;-57
2022/04/18 06:38:28;;;;;;;5.03;3.50;;;8.60;99.90;;;;;;5052072;28;20017;-57
2022/04/18 06:40:57;;;;;;;5.05;3.45;;;8.60;99.90;;;;;;5052379;28;20033;-57
2022/04/18 06:43:23;;;;;;;5.25;3.67;;;8.60;99.90;;;;;;5052801;28;20031;-57
2022/04/18 06:45:48;;;;;;;6.93;3.55;;;8.60;99.90;;;;;;5052421;28;20501;-56
2022/04/18 06:48:14;;;;;;;4.70;3.35;;;8.60;99.90;;;;;;5051797;28;20075;-56
2022/04/18 06:50:40;;;;;;;8.18;4.10;;;8.80;99.90;;;;;;5051715;28;20121;-56
2022/04/18 06:53:05;;;;;;;6.88;4.10;;;9.00;99.90;;;;;;5050317;28;20068;-56
2022/04/18 06:56:58;;;;;;;5.13;3.65;;;9.10;99.90;;;;;;5051748;28;20029;-57
2022/04/18 06:58:17;;;;;;;4.53;3.15;;;9.30;98.70;;;;;;5051602;28;20047;-56
2022/04/18 07:00:43;;;;;;;6.60;3.22;;;9.40;98.00;;;;;;5050476;28;20474;-56
2022/04/18 07:03:08;;;;;;;4.13;2.83;;;9.60;96.10;;;;;;5051297;28;20021;-56
2022/04/18 07:05:34;;;;;;;3.58;2.83;;;9.80;95.20;;;;;;5051516;28;20377;-56
2022/04/18 07:07:59;;;;;;;4.85;2.65;;;9.90;94.20;;;;;;5049875;28;20028;-56
2022/04/18 07:10:25;;;;;;;5.25;3.08;;;10.00;93.90;;;;;;5050967;28;20021;-57
2022/04/18 07:12:51;;;;;;;5.18;2.72;;;10.10;94.30;;;;;;5050959;28;20025;-57
2022/04/18 07:15:16;;;;;;;6.90;3.47;;;10.20;93.80;;;;;;5050381;28;20017;-57
2022/04/18 07:17:42;;;;;;;6.97;3.17;;;10.30;94.60;;;;;;5050941;28;20029;-57
2022/04/18 07:20:08;;;;;;;7.13;3.40;;;10.50;93.10;;;;;;5049891;28;20029;-57
2022/04/18 07:22:40;;;;;;;7.05;3.28;;;11.10;92.60;;;;;;5051072;28;20036;-57
2022/04/18 07:25:08;;;;;;;6.35;3.13;;;12.20;90.20;;;;;;5051721;28;20025;-57
2022/04/18 07:27:33;;;;;;;6.88;3.17;;;13.50;85.10;;;;;;5050187;28;20075;-57
2022/04/18 07:29:59;;;;;;;6.18;2.90;;;14.80;79.70;;;;;;5050076;28;20041;-57
2022/04/18 07:32:25;;;;;;;7.63;3.38;;;15.80;72.60;;;;;;5049852;28;20526;-57
2022/04/18 07:34:50;;;;;;;5.35;3.05;;;16.20;71.10;;;;;;5050164;28;20037;-57
2022/04/18 07:37:16;;;;;;;6.65;3.33;;;17.00;69.10;;;;;;5050296;28;20086;-57
2022/04/18 07:39:42;;;;;;;5.82;3.35;;;17.80;66.50;;;;;;5049030;28;20091;-57
2022/04/18 07:42:07;;;;;;;6.10;3.70;;;18.10;64.60;;;;;;5050693;28;20075;-58
2022/04/18 07:44:33;;;;;;;5.50;3.20;;;18.70;63.00;;;;;;5050676;28;20100;-58
2022/04/18 07:46:59;;;;;;;6.32;3.30;;;19.20;59.90;;;;;;5050342;28;20031;-58
2022/04/18 07:49:25;;;;;;;7.95;3.97;;;18.10;63.60;;;;;;5049920;28;20055;-58
2022/04/18 07:51:51;;;;;;;6.55;3.38;;;17.60;64.80;;;;;;5049899;28;20449;-58
2022/04/18 07:54:19;;;;;;;4.45;2.88;;;18.00;64.40;;;;;;5050424;28;20057;-58
2022/04/18 07:56:45;;;;;;;6.80;2.80;;;18.50;62.70;;;;;;5050565;28;20029;-58
2022/04/18 07:59:11;;;;;;;4.55;2.60;;;18.80;61.90;;;;;;5050110;28;20115;-58
2022/04/18 08:01:37;;;;;;;3.25;2.42;;;19.40;58.80;;;;;;5050206;28;20112;-58
2022/04/18 08:04:03;;;;;;;2.80;2.30;;;19.30;57.80;;;;;;5049836;28;20294;-59
2022/04/18 08:06:30;;;;;;;6.20;3.33;;;18.70;58.70;;;;;;5049621;28;20312;-58
2022/04/18 08:08:56;;;;;;;5.55;2.55;;;18.70;59.60;;;;;;5049734;28;20013;-58
2022/04/18 08:11:22;;;;;;;3.65;2.65;;;18.90;59.20;;;;;;5049441;28;20466;-58
2022/04/18 08:13:50;;;;;;;3.50;2.85;;;19.40;58.10;;;;;;5049910;28;20313;-59
2022/04/18 08:16:17;;;;;;;3.78;2.88;;;19.00;58.90;;;;;;5049821;28;20032;-59
2022/04/18 08:18:44;;;;;;;4.65;3.15;;;19.10;58.90;;;;;;5049964;28;20017;-59
2022/04/18 08:21:15;;;;;;;4.75;2.67;;;20.00;58.30;;;;;;5049763;28;20047;-59
2022/04/18 08:23:42;;;;;;;4.07;2.60;;;19.70;57.90;;;;;;5050240;28;20033;-59
2022/04/18 08:26:08;;;;;;;4.63;2.60;;;20.10;58.70;;;;;;5049993;28;20029;-59
2022/04/18 08:28:34;;;;;;;6.68;3.08;;;20.20;58.10;;;;;;5049559;28;20644;-58
2022/04/18 08:31:01;;;;;;;3.72;2.60;;;19.50;58.40;;;;;;5049763;28;20021;-58
2022/04/18 08:33:29;;;;;;;5.82;3.08;;;19.10;59.80;;;;;;5049674;28;20044;-58
2022/04/18 08:35:58;;;;;;;3.28;2.50;;;19.40;58.90;;;;;;5048638;28;20517;-58
2022/04/18 08:38:25;;;;;;;6.07;2.70;;;19.00;59.40;;;;;;5049822;28;20033;-58
2022/04/18 08:40:51;;;;;;;4.72;2.40;;;19.30;59.00;;;;;;5049439;28;20036;-58
2022/04/18 08:43:17;;;;;;;3.10;2.13;;;19.30;58.20;;;;;;5049205;28;20066;-58
2022/04/18 08:45:43;;;;;;;2.92;2.50;;;19.80;59.00;;;;;;5049680;28;20494;-58
2022/04/18 08:53:38;;;;;;;3.83;1.80;;;20.00;57.20;;;;;;5049739;28;20363;-59
2022/04/18 08:56:05;;;;;;;3.03;2.05;;;20.70;55.00;;;;;;5049574;28;20398;-59
2022/04/18 08:58:31;;;;;;;3.08;1.58;;;20.70;55.00;;;;;;5049354;28;20516;-59
2022/04/18 09:00:59;;;;;;;3.30;2.00;;;20.30;55.50;;;;;;5050195;28;20017;-59
2022/04/18 09:03:25;;;;;;;4.18;1.95;;;20.80;54.40;;;;;;5050435;28;20107;-59
2022/04/18 09:06:06;;;;;;;3.15;2.03;;;20.60;54.00;;;;;;5049854;28;20433;-59
2022/04/18 09:08:46;;;;;;;2.60;1.83;;;20.40;55.20;;;;;;5049587;28;20021;-58
2022/04/18 09:11:29;;;;;;;4.32;1.77;;;20.40;54.40;;;;;;5049944;28;20529;-58
2022/04/18 09:13:58;;;;;;;3.80;2.00;;;21.00;55.00;;;;;;5049663;28;20116;-59
2022/04/18 09:16:31;;;;;;;3.97;2.03;;;21.70;54.00;;;;;;5047889;28;20033;-59
2022/04/18 09:19:05;;;;;;;;;;;22.00;51.50;;;;;;5050177;28;20087;-59
2022/04/18 09:21:31;;;;;;;4.30;1.88;;;21.80;51.90;;;;;;5049704;28;19912;-59
2022/04/18 09:23:57;;;;;;;3.50;2.20;;;21.50;52.90;;;;;;5051686;28;20021;-59
2022/04/18 09:26:24;;;;;;;2.60;2.28;;;21.30;53.80;;;;;;5053528;28;20025;-59
2022/04/18 09:28:50;;;;;;;2.97;1.90;;;22.00;53.50;;;;;;5053354;28;20032;-63
2022/04/18 09:31:19;;;;;;;3.35;2.40;;;21.80;53.30;;;;;;5053321;28;20045;-59
2022/04/18 09:33:56;;;;;;;2.50;2.00;;;21.90;53.40;;;;;;5052950;28;20045;-59
2022/04/18 09:36:23;;;;;;;3.45;1.98;;;21.40;52.20;;;;;;5052688;28;20047;-59
2022/04/18 09:38:53;;;;;;;3.55;2.05;;;21.00;53.40;;;;;;5052646;28;20028;-59
2022/04/18 09:41:27;;;;;;;2.67;1.70;;;21.30;54.10;;;;;;5051434;28;20044;-59
2022/04/18 09:43:54;;;;;;;2.85;1.80;;;21.30;52.80;;;;;;5052686;28;20575;-59
2022/04/18 09:46:21;;;;;;;3.15;1.88;;;21.50;54.20;;;;;;5052787;28;20104;-59
2022/04/18 09:48:48;;;;;;;3.67;2.10;;;22.10;53.70;;;;;;5052613;28;20059;-59
2022/04/18 09:51:37;;;;;;;2.80;1.90;;;22.60;52.80;;;;;;5052546;28;20025;-59
2022/04/18 09:54:05;;;;;;;3.42;1.90;;;22.50;50.10;;;;;;5052772;28;20059;-59
2022/04/18 09:56:31;;;;;;;2.72;1.70;;;22.60;51.40;;;;;;5052118;28;20521;-59
2022/04/18 09:58:58;;;;;;;3.90;1.98;;;23.30;48.60;;;;;;5052803;28;20100;-59
2022/04/18 10:01:24;;;;;;;3.25;2.10;;;22.90;50.50;;;;;;5052499;28;20032;-60
2022/04/18 10:03:52;;;;;;;1.85;1.67;;;22.80;50.10;;;;;;5052730;28;20013;-60
2022/04/18 10:06:19;;;;;;;1.80;1.58;;;22.80;49.40;;;;;;5052265;28;20033;-59
2022/04/18 10:08:44;;;;;;;3.05;1.77;;;22.80;48.60;;;;;;5050887;28;20032;-59
2022/04/18 10:11:11;;;;;;;2.15;1.55;;;22.40;49.80;;;;;;5052220;28;20029;-59
2022/04/18 10:13:37;;;;;;;1.80;1.67;;;22.40;49.20;;;;;;5052368;28;20493;-60
2022/04/18 10:16:04;;;;;;;3.05;1.80;;;22.90;49.00;;;;;;5052364;28;20539;-59
2022/04/18 10:18:45;;;;;;;2.97;1.70;;;23.60;48.80;;;;;;5052085;28;20120;-59
2022/04/18 10:21:18;;;;;;;3.70;1.70;;;24.00;47.20;;;;;;5052129;28;20053;-59
2022/04/18 10:24:02;;;;;;;2.70;1.50;;;23.30;48.80;;;;;;5052269;28;20055;-59
2022/04/18 10:26:33;;;;;;;3.35;1.30;;;24.20;48.20;;;;;;5051874;28;20398;-59
2022/04/18 10:29:22;;;;;;;3.08;2.33;;;24.90;48.20;;;;;;5052203;28;20082;-59
2022/04/18 10:31:52;;;;;;;2.33;1.42;;;25.10;47.30;;;;;;5051709;28;20406;-59
2022/04/18 10:34:21;;;;;;;1.95;1.52;;;24.70;46.80;;;;;;5050747;28;20342;-59
2022/04/18 10:36:51;;;;;;;1.70;1.20;;;25.30;45.80;;;;;;5051731;28;20112;-59
2022/04/18 10:39:17;;;;;;;2.15;1.50;;;26.00;45.10;;;;;;5050754;28;20477;-59
2022/04/18 10:41:45;;;;;;;2.25;1.88;;;26.60;44.10;;;;;;5052265;28;20031;-58
2022/04/18 10:44:16;;;;;;;1.85;1.55;;;27.20;42.20;;;;;;5052215;28;20029;-59
2022/04/18 10:46:55;;;;;;;2.08;1.70;;;26.40;42.80;;;;;;5051243;28;20041;-59
2022/04/18 10:49:31;;;;;;;1.88;1.70;;;25.30;42.80;;;;;;5051387;28;20017;-58
2022/04/18 10:51:57;;;;;;;3.05;1.90;;;24.20;44.40;;;;;;5051287;28;20021;-59
2022/04/18 10:54:30;;;;;;;2.22;1.65;;;24.00;45.10;;;;;;5051768;28;20021;-58
2022/04/18 10:57:01;;;;;;;1.63;1.52;;;24.70;44.10;;;;;;5051255;28;20029;-59
2022/04/18 10:59:33;;;;;;;2.30;1.60;;;25.20;44.00;;;;;;5051224;28;20041;-59
2022/04/18 11:02:05;;;;;;;3.08;1.70;;;26.00;43.20;;;;;;5051525;28;20025;-59
2022/04/18 11:04:33;;;;;;;;;;;25.60;44.00;;;;;;5051589;28;20020;-59
2022/04/18 11:07:00;;;;;;;2.95;1.58;;;25.10;44.60;;;;;;5051330;28;19909;-59
2022/04/18 11:09:28;;;;;;;2.90;1.38;;;25.60;44.20;;;;;;5051332;28;20096;-59
2022/04/18 11:12:01;;;;;;;1.70;1.27;;;25.20;44.10;;;;;;5050918;28;20033;-59
2022/04/18 11:14:40;;;;;;;2.67;1.58;;;25.30;44.10;;;;;;5049932;28;20028;-59
2022/04/18 11:17:10;;;;;;;2.58;1.70;;;25.00;43.70;;;;;;5050806;28;20385;-59
2022/04/18 11:19:41;;;;;;;2.13;1.63;;;25.10;42.60;;;;;;5051342;28;20021;-59
2022/04/18 11:22:08;;;;;;;2.83;1.75;;;25.10;41.40;;;;;;5050888;28;20367;-59
2022/04/18 11:24:35;;;;;;;4.60;1.83;;;24.90;41.60;;;;;;5050938;28;20490;-59
2022/04/18 11:27:02;;;;;;;2.58;1.85;;;25.00;42.00;;;;;;5050745;28;20104;-58
2022/04/18 11:29:31;;;;;;;6.20;1.90;;;25.00;42.40;;;;;;5050767;28;20033;-58
2022/04/18 11:31:57;;;;;;;2.63;1.70;;;26.00;42.10;;;;;;5050817;28;20048;-61
2022/04/18 11:34:27;;;;;;;2.75;1.73;;;26.20;41.50;;;;;;5050106;28;20393;-59
2022/04/18 11:36:58;;;;;;;1.42;1.33;;;26.30;42.80;;;;;;5050606;28;20025;-59
2022/04/18 11:39:23;;;;;;;2.60;1.80;;;25.80;39.10;;;;;;5050488;28;20017;-58
2022/04/18 11:42:01;;;;;;;3.08;1.70;;;25.50;40.40;;;;;;5050332;28;20033;-59
2022/04/18 11:44:26;;;;;;;4.22;1.80;;;25.80;39.70;;;;;;5050867;28;20463;-58
2022/04/18 11:46:52;;;;;;;2.72;1.58;;;25.70;40.30;;;;;;5050628;28;20025;-59
2022/04/18 11:49:27;;;;;;;3.47;1.70;;;26.50;39.20;;;;;;5049410;28;20282;-59
2022/04/18 11:51:53;;;;;;;2.17;1.90;;;26.70;41.20;;;;;;5050548;28;20063;-58
2022/04/18 11:54:18;;;;;;;2.53;1.92;;;27.20;40.30;;;;;;5050432;28;20028;-59
2022/04/18 11:56:56;;;;;;;2.25;1.70;;;27.90;39.20;;;;;;5050447;28;20024;-59
2022/04/18 11:59:25;;;;;;;2.28;1.73;;;28.20;38.30;;;;;;5050134;28;20496;-58
2022/04/18 12:07:19;;;;;;;2.08;1.42;;;28.20;38.80;;;;;;5050247;28;20143;-59
2022/04/18 12:09:45;;;;;;;2.00;1.45;;;27.80;37.70;;;;;;5050886;28;20095;-59
2022/04/18 12:12:26;;;;;;;4.20;1.83;;;28.30;37.30;;;;;;5050252;28;20459;-59
2022/04/18 12:14:52;;;;;;;2.95;1.55;;;27.90;37.80;;;;;;5050541;28;20055;-59
2022/04/18 12:17:17;;;;;;;1.90;1.67;;;27.90;38.30;;;;;;5050111;28;20028;-59
2022/04/18 12:19:43;;;;;;;4.50;1.60;;;27.40;37.30;;;;;;5048849;28;20032;-58
2022/04/18 12:22:20;;;;;;;2.10;1.42;;;26.80;37.10;;;;;;5050942;28;20441;-58
2022/04/18 12:24:46;;;;;;;3.20;1.80;;;27.60;37.30;;;;;;5050663;28;20172;-58
2022/04/18 12:27:11;;;;;;;2.72;1.92;;;26.70;37.50;;;;;;5050035;28;20037;-58
2022/04/18 12:29:38;;;;;;;2.83;1.95;;;26.60;37.30;;;;;;5049776;28;20485;-58
2022/04/18 12:32:04;;;;;;;2.40;1.48;;;26.50;37.10;;;;;;5049876;28;20497;-59
2022/04/18 12:34:29;;;;;;;3.10;1.67;;;26.20;38.00;;;;;;5049849;28;20049;-59
2022/04/18 12:37:00;;;;;;;2.80;1.80;;;27.00;38.10;;;;;;5049762;28;20025;-59
2022/04/18 12:39:26;;;;;;;2.13;1.70;;;27.90;36.50;;;;;;5049929;28;20083;-59
2022/04/18 12:42:05;;;;;;;4.22;1.90;;;28.10;36.10;;;;;;5049961;28;20029;-59
2022/04/18 12:44:31;;;;;;;3.05;1.90;;;27.90;36.40;;;;;;5050206;28;20112;-59
2022/04/18 12:46:57;;;;;;;2.38;1.80;;;27.00;38.50;;;;;;5049812;28;20136;-58
2022/04/18 12:49:23;;;;;;;5.75;1.90;;;25.70;38.70;;;;;;5050123;28;20063;-58
2022/04/18 12:51:51;;;;;;;2.53;2.00;;;25.30;39.40;;;;;;5050144;28;20021;-58
2022/04/18 12:54:21;;;;;;;2.10;1.80;;;25.40;39.30;;;;;;5050220;28;20028;-58
2022/04/18 12:56:48;;;;;;;2.50;1.85;;;25.40;38.90;;;;;;5049592;28;20036;-58
2022/04/18 12:59:28;;;;;;;3.40;1.90;;;25.50;39.00;;;;;;5054128;28;20047;-59
2022/04/18 13:02:09;;;;;;;3.08;2.00;;;25.40;38.90;;;;;;5052197;28;20021;-59
2022/04/18 13:04:34;;;;;;;2.10;1.70;;;26.60;38.20;;;;;;5053588;28;20025;-58
2022/04/18 13:07:03;;;;;;;2.47;1.80;;;26.70;38.00;;;;;;5053791;28;20489;-59
2022/04/18 13:09:30;;;;;;;2.47;1.98;;;26.50;38.10;;;;;;5053321;28;20021;-59
2022/04/18 13:12:04;;;;;;;2.65;2.00;;;26.60;37.70;;;;;;5053477;28;20513;-58
2022/04/18 13:14:30;;;;;;;2.00;1.70;;;26.60;37.80;;;;;;5053571;28;20108;-58